sensor_id;sensor_type;location;lat;lon;timestamp;P1;durP1;ratioP1;P2;durP2;ratioP2
19358;SDS011;9815;52.334;20.890;2022-08-01T00:01:15;9.37;;;5.47;;
19358;SDS011;9815;52.334;20.890;2022-08-01T00:03:45;8.70;;;5.33;;
19358;SDS011;9815;52.334;20.890;2022-08-01T00:06:13;8.47;;;5.40;;
19358;SDS011;9815;52.334;20.890;2022-08-01T00:08:41;11.83;;;4.77;;
19358;SDS011;9815;52.334;20.890;2022-08-01T00:11:10;10.37;;;5.33;;
19358;SDS011;9815;52.334;20.890;2022-08-01T00:13:38;8.60;;;5.10;;
19358;SDS011;9815;52.334;20.890;2022-08-01T00:16:06;7.50;;;5.07;;
19358;SDS011;9815;52.334;20.890;2022-08-01T00:18:34;8.03;;;4.63;;
19358;SDS011;9815;52.334;20.890;2022-08-01T00:21:04;14.17;;;5.20;;
19358;SDS011;9815;52.334;20.890;2022-08-01T00:23:32;6.93;;;4.70;;
19358;SDS011;9815;52.334;20.890;2022-08-01T00:26:01;6.80;;;4.77;;
19358;SDS011;9815;52.334;20.890;2022-08-01T00:28:29;6.90;;;4.53;;
19358;SDS011;9815;52.334;20.890;2022-08-01T00:30:57;8.47;;;5.00;;
19358;SDS011;9815;52.334;20.890;2022-08-01T00:33:25;9.13;;;5.20;;
19358;SDS011;9815;52.334;20.890;2022-08-01T00:35:54;10.93;;;5.60;;
19358;SDS011;9815;52.334;20.890;2022-08-01T00:38:23;6.47;;;5.30;;
19358;SDS011;9815;52.334;20.890;2022-08-01T00:40:52;7.63;;;4.97;;
19358;SDS011;9815;52.334;20.890;2022-08-01T00:43:20;12.53;;;5.20;;
19358;SDS011;9815;52.334;20.890;2022-08-01T00:45:48;10.93;;;5.23;;
19358;SDS011;9815;52.334;20.890;2022-08-01T00:48:17;6.53;;;5.23;;
19358;SDS011;9815;52.334;20.890;2022-08-01T00:50:45;14.70;;;5.37;;
19358;SDS011;9815;52.334;20.890;2022-08-01T00:53:13;10.83;;;5.20;;
19358;SDS011;9815;52.334;20.890;2022-08-01T00:55:45;7.10;;;4.60;;
19358;SDS011;9815;52.334;20.890;2022-08-01T00:58:14;5.70;;;4.70;;
19358;SDS011;9815;52.334;20.890;2022-08-01T01:00:43;8.50;;;5.27;;
19358;SDS011;9815;52.334;20.890;2022-08-01T01:03:19;10.03;;;5.33;;
19358;SDS011;9815;52.334;20.890;2022-08-01T01:06:05;10.33;;;5.23;;
19358;SDS011;9815;52.334;20.890;2022-08-01T01:08:42;10.23;;;5.40;;
19358;SDS011;9815;52.334;20.890;2022-08-01T01:11:19;10.50;;;5.23;;
19358;SDS011;9815;52.334;20.890;2022-08-01T01:13:52;11.23;;;5.57;;
19358;SDS011;9815;52.334;20.890;2022-08-01T01:16:25;8.53;;;5.17;;
19358;SDS011;9815;52.334;20.890;2022-08-01T01:18:55;6.87;;;5.20;;
19358;SDS011;9815;52.334;20.890;2022-08-01T01:21:42;9.23;;;5.23;;
19358;SDS011;9815;52.334;20.890;2022-08-01T01:24:26;7.50;;;5.17;;
19358;SDS011;9815;52.334;20.890;2022-08-01T01:27:05;11.43;;;5.40;;
19358;SDS011;9815;52.334;20.890;2022-08-01T01:29:40;8.00;;;5.20;;
19358;SDS011;9815;52.334;20.890;2022-08-01T01:32:28;9.20;;;5.13;;
19358;SDS011;9815;52.334;20.890;2022-08-01T01:35:00;11.37;;;5.80;;
19358;SDS011;9815;52.334;20.890;2022-08-01T01:37:32;6.83;;;5.63;;
19358;SDS011;9815;52.334;20.890;2022-08-01T01:40:01;11.50;;;5.17;;
19358;SDS011;9815;52.334;20.890;2022-08-01T01:42:31;15.60;;;5.57;;
19358;SDS011;9815;52.334;20.890;2022-08-01T01:45:02;8.83;;;5.03;;
19358;SDS011;9815;52.334;20.890;2022-08-01T01:47:32;9.17;;;5.40;;
19358;SDS011;9815;52.334;20.890;2022-08-01T01:50:02;15.43;;;5.77;;
19358;SDS011;9815;52.334;20.890;2022-08-01T01:52:32;6.43;;;5.40;;
19358;SDS011;9815;52.334;20.890;2022-08-01T01:55:04;10.93;;;5.20;;
19358;SDS011;9815;52.334;20.890;2022-08-01T01:57:35;11.47;;;5.37;;
19358;SDS011;9815;52.334;20.890;2022-08-01T02:00:09;11.23;;;5.20;;
19358;SDS011;9815;52.334;20.890;2022-08-01T02:02:39;6.60;;;4.90;;
19358;SDS011;9815;52.334;20.890;2022-08-01T02:05:10;6.83;;;4.70;;
19358;SDS011;9815;52.334;20.890;2022-08-01T02:07:39;10.57;;;4.90;;
19358;SDS011;9815;52.334;20.890;2022-08-01T02:10:09;6.23;;;4.70;;
19358;SDS011;9815;52.334;20.890;2022-08-01T02:12:40;10.40;;;4.70;;
19358;SDS011;9815;52.334;20.890;2022-08-01T02:15:13;9.10;;;4.90;;
19358;SDS011;9815;52.334;20.890;2022-08-01T02:17:43;11.53;;;4.57;;
19358;SDS011;9815;52.334;20.890;2022-08-01T02:20:15;10.33;;;5.07;;
19358;SDS011;9815;52.334;20.890;2022-08-01T02:22:45;9.00;;;4.93;;
19358;SDS011;9815;52.334;20.890;2022-08-01T02:25:19;8.07;;;4.53;;
19358;SDS011;9815;52.334;20.890;2022-08-01T02:27:54;8.17;;;4.97;;
19358;SDS011;9815;52.334;20.890;2022-08-01T02:30:30;9.90;;;4.70;;
19358;SDS011;9815;52.334;20.890;2022-08-01T02:33:02;5.50;;;4.33;;
19358;SDS011;9815;52.334;20.890;2022-08-01T02:35:41;8.17;;;4.83;;
19358;SDS011;9815;52.334;20.890;2022-08-01T02:38:31;8.53;;;4.50;;
19358;SDS011;9815;52.334;20.890;2022-08-01T02:41:04;8.37;;;4.70;;
19358;SDS011;9815;52.334;20.890;2022-08-01T02:43:36;8.53;;;4.87;;
19358;SDS011;9815;52.334;20.890;2022-08-01T02:46:11;6.80;;;5.03;;
19358;SDS011;9815;52.334;20.890;2022-08-01T02:48:45;9.67;;;4.97;;
19358;SDS011;9815;52.334;20.890;2022-08-01T02:51:17;8.47;;;5.13;;
19358;SDS011;9815;52.334;20.890;2022-08-01T02:53:49;9.37;;;5.33;;
19358;SDS011;9815;52.334;20.890;2022-08-01T02:56:19;12.73;;;4.97;;
19358;SDS011;9815;52.334;20.890;2022-08-01T02:58:49;7.43;;;5.07;;
19358;SDS011;9815;52.334;20.890;2022-08-01T03:01:20;14.30;;;5.40;;
19358;SDS011;9815;52.334;20.890;2022-08-01T03:03:52;9.00;;;5.13;;
19358;SDS011;9815;52.334;20.890;2022-08-01T03:06:20;14.80;;;5.57;;
19358;SDS011;9815;52.334;20.890;2022-08-01T03:08:49;11.77;;;5.00;;
19358;SDS011;9815;52.334;20.890;2022-08-01T03:11:18;9.83;;;4.87;;
19358;SDS011;9815;52.334;20.890;2022-08-01T03:13:48;10.83;;;5.30;;
19358;SDS011;9815;52.334;20.890;2022-08-01T03:16:20;8.43;;;5.80;;
19358;SDS011;9815;52.334;20.890;2022-08-01T03:18:53;13.07;;;5.33;;
19358;SDS011;9815;52.334;20.890;2022-08-01T03:21:24;9.27;;;5.33;;
19358;SDS011;9815;52.334;20.890;2022-08-01T03:23:55;8.80;;;5.47;;
19358;SDS011;9815;52.334;20.890;2022-08-01T03:26:28;12.83;;;5.63;;
19358;SDS011;9815;52.334;20.890;2022-08-01T03:28:59;8.53;;;5.70;;
19358;SDS011;9815;52.334;20.890;2022-08-01T03:31:35;14.43;;;5.90;;
19358;SDS011;9815;52.334;20.890;2022-08-01T03:34:09;8.67;;;5.23;;
19358;SDS011;9815;52.334;20.890;2022-08-01T03:36:40;10.43;;;6.20;;
19358;SDS011;9815;52.334;20.890;2022-08-01T03:39:15;12.20;;;6.43;;
19358;SDS011;9815;52.334;20.890;2022-08-01T03:41:46;13.83;;;6.70;;
19358;SDS011;9815;52.334;20.890;2022-08-01T03:44:22;11.90;;;6.40;;
19358;SDS011;9815;52.334;20.890;2022-08-01T03:46:56;8.43;;;6.03;;
19358;SDS011;9815;52.334;20.890;2022-08-01T03:49:29;9.23;;;6.57;;
19358;SDS011;9815;52.334;20.890;2022-08-01T03:51:59;11.00;;;6.50;;
19358;SDS011;9815;52.334;20.890;2022-08-01T03:54:31;12.40;;;6.20;;
19358;SDS011;9815;52.334;20.890;2022-08-01T03:57:03;16.97;;;6.80;;
19358;SDS011;9815;52.334;20.890;2022-08-01T03:59:32;13.47;;;6.80;;
19358;SDS011;9815;52.334;20.890;2022-08-01T04:02:05;12.23;;;7.30;;
19358;SDS011;9815;52.334;20.890;2022-08-01T04:04:34;11.43;;;7.50;;
19358;SDS011;9815;52.334;20.890;2022-08-01T04:07:03;12.23;;;7.90;;
19358;SDS011;9815;52.334;20.890;2022-08-01T04:09:33;12.13;;;8.43;;
19358;SDS011;9815;52.334;20.890;2022-08-01T04:12:01;12.47;;;8.63;;
19358;SDS011;9815;52.334;20.890;2022-08-01T04:14:37;12.73;;;8.33;;
19358;SDS011;9815;52.334;20.890;2022-08-01T04:17:07;15.50;;;8.90;;
19358;SDS011;9815;52.334;20.890;2022-08-01T04:19:35;12.97;;;9.07;;
19358;SDS011;9815;52.334;20.890;2022-08-01T04:22:03;12.77;;;9.03;;
19358;SDS011;9815;52.334;20.890;2022-08-01T04:24:33;13.73;;;8.50;;
19358;SDS011;9815;52.334;20.890;2022-08-01T04:27:05;14.53;;;9.33;;
19358;SDS011;9815;52.334;20.890;2022-08-01T04:29:38;15.63;;;8.93;;
19358;SDS011;9815;52.334;20.890;2022-08-01T04:32:11;12.70;;;8.43;;
19358;SDS011;9815;52.334;20.890;2022-08-01T04:34:41;11.70;;;8.93;;
19358;SDS011;9815;52.334;20.890;2022-08-01T04:37:13;12.93;;;8.60;;
19358;SDS011;9815;52.334;20.890;2022-08-01T04:39:43;13.13;;;8.90;;
19358;SDS011;9815;52.334;20.890;2022-08-01T04:42:16;16.47;;;8.80;;
19358;SDS011;9815;52.334;20.890;2022-08-01T04:44:55;12.97;;;8.30;;
19358;SDS011;9815;52.334;20.890;2022-08-01T04:47:26;16.63;;;8.57;;
19358;SDS011;9815;52.334;20.890;2022-08-01T04:49:55;14.83;;;8.70;;
19358;SDS011;9815;52.334;20.890;2022-08-01T04:52:31;10.97;;;8.20;;
19358;SDS011;9815;52.334;20.890;2022-08-01T04:55:00;13.37;;;8.17;;
19358;SDS011;9815;52.334;20.890;2022-08-01T04:57:29;13.13;;;8.33;;
19358;SDS011;9815;52.334;20.890;2022-08-01T04:59:58;11.23;;;8.60;;
19358;SDS011;9815;52.334;20.890;2022-08-01T05:02:27;13.80;;;8.67;;
19358;SDS011;9815;52.334;20.890;2022-08-01T05:04:55;16.57;;;8.53;;
19358;SDS011;9815;52.334;20.890;2022-08-01T05:07:24;14.37;;;8.83;;
19358;SDS011;9815;52.334;20.890;2022-08-01T05:09:52;12.67;;;8.80;;
19358;SDS011;9815;52.334;20.890;2022-08-01T05:12:20;13.20;;;9.23;;
19358;SDS011;9815;52.334;20.890;2022-08-01T05:14:48;18.17;;;9.07;;
19358;SDS011;9815;52.334;20.890;2022-08-01T05:17:17;16.33;;;10.10;;
19358;SDS011;9815;52.334;20.890;2022-08-01T05:19:46;12.17;;;9.30;;
19358;SDS011;9815;52.334;20.890;2022-08-01T05:22:15;16.10;;;10.40;;
19358;SDS011;9815;52.334;20.890;2022-08-01T05:24:43;19.50;;;11.13;;
19358;SDS011;9815;52.334;20.890;2022-08-01T05:27:14;20.67;;;10.70;;
19358;SDS011;9815;52.334;20.890;2022-08-01T05:29:44;16.17;;;10.90;;
19358;SDS011;9815;52.334;20.890;2022-08-01T05:32:12;16.63;;;11.07;;
19358;SDS011;9815;52.334;20.890;2022-08-01T05:34:41;18.10;;;12.33;;
19358;SDS011;9815;52.334;20.890;2022-08-01T05:37:10;19.37;;;13.20;;
19358;SDS011;9815;52.334;20.890;2022-08-01T05:39:38;17.30;;;10.60;;
19358;SDS011;9815;52.334;20.890;2022-08-01T05:42:07;14.13;;;9.40;;
19358;SDS011;9815;52.334;20.890;2022-08-01T05:44:35;15.07;;;9.60;;
19358;SDS011;9815;52.334;20.890;2022-08-01T05:47:03;13.73;;;8.27;;
19358;SDS011;9815;52.334;20.890;2022-08-01T05:49:31;13.20;;;8.47;;
19358;SDS011;9815;52.334;20.890;2022-08-01T05:52:00;12.53;;;8.07;;
19358;SDS011;9815;52.334;20.890;2022-08-01T05:54:30;13.97;;;8.53;;
19358;SDS011;9815;52.334;20.890;2022-08-01T05:56:59;14.07;;;8.37;;
19358;SDS011;9815;52.334;20.890;2022-08-01T05:59:28;11.17;;;7.77;;
19358;SDS011;9815;52.334;20.890;2022-08-01T06:01:56;11.67;;;7.43;;
19358;SDS011;9815;52.334;20.890;2022-08-01T06:04:24;11.83;;;6.80;;
19358;SDS011;9815;52.334;20.890;2022-08-01T06:06:53;10.37;;;6.77;;
19358;SDS011;9815;52.334;20.890;2022-08-01T06:09:21;10.00;;;6.80;;
19358;SDS011;9815;52.334;20.890;2022-08-01T06:11:50;10.20;;;5.87;;
19358;SDS011;9815;52.334;20.890;2022-08-01T06:14:19;11.47;;;6.37;;
19358;SDS011;9815;52.334;20.890;2022-08-01T06:16:47;9.53;;;6.47;;
19358;SDS011;9815;52.334;20.890;2022-08-01T06:19:15;12.97;;;6.97;;
19358;SDS011;9815;52.334;20.890;2022-08-01T06:21:43;7.90;;;6.00;;
19358;SDS011;9815;52.334;20.890;2022-08-01T06:24:11;8.77;;;6.23;;
19358;SDS011;9815;52.334;20.890;2022-08-01T06:26:40;8.53;;;5.60;;
19358;SDS011;9815;52.334;20.890;2022-08-01T06:29:10;9.03;;;6.40;;
19358;SDS011;9815;52.334;20.890;2022-08-01T06:31:39;7.63;;;5.60;;
19358;SDS011;9815;52.334;20.890;2022-08-01T06:34:07;7.37;;;5.80;;
19358;SDS011;9815;52.334;20.890;2022-08-01T06:36:35;9.30;;;4.80;;
19358;SDS011;9815;52.334;20.890;2022-08-01T06:39:04;8.43;;;4.80;;
19358;SDS011;9815;52.334;20.890;2022-08-01T06:41:32;10.97;;;4.87;;
19358;SDS011;9815;52.334;20.890;2022-08-01T06:44:00;8.03;;;4.37;;
19358;SDS011;9815;52.334;20.890;2022-08-01T06:46:32;5.73;;;4.13;;
19358;SDS011;9815;52.334;20.890;2022-08-01T06:49:02;7.77;;;4.30;;
19358;SDS011;9815;52.334;20.890;2022-08-01T06:51:30;7.00;;;4.07;;
19358;SDS011;9815;52.334;20.890;2022-08-01T06:53:59;5.40;;;3.90;;
19358;SDS011;9815;52.334;20.890;2022-08-01T06:56:28;4.93;;;3.73;;
19358;SDS011;9815;52.334;20.890;2022-08-01T06:58:56;5.60;;;3.43;;
19358;SDS011;9815;52.334;20.890;2022-08-01T07:01:27;6.03;;;3.47;;
19358;SDS011;9815;52.334;20.890;2022-08-01T07:04:01;7.73;;;3.87;;
19358;SDS011;9815;52.334;20.890;2022-08-01T07:06:30;7.40;;;3.90;;
19358;SDS011;9815;52.334;20.890;2022-08-01T07:08:59;6.00;;;3.20;;
19358;SDS011;9815;52.334;20.890;2022-08-01T07:11:36;5.40;;;3.43;;
19358;SDS011;9815;52.334;20.890;2022-08-01T07:14:04;4.67;;;3.57;;
19358;SDS011;9815;52.334;20.890;2022-08-01T07:16:33;6.77;;;3.17;;
19358;SDS011;9815;52.334;20.890;2022-08-01T07:19:03;3.43;;;2.80;;
19358;SDS011;9815;52.334;20.890;2022-08-01T07:21:32;6.23;;;2.93;;
19358;SDS011;9815;52.334;20.890;2022-08-01T07:24:06;6.87;;;2.57;;
19358;SDS011;9815;52.334;20.890;2022-08-01T07:26:40;4.87;;;3.00;;
19358;SDS011;9815;52.334;20.890;2022-08-01T07:29:19;3.90;;;2.70;;
19358;SDS011;9815;52.334;20.890;2022-08-01T07:31:48;6.30;;;2.93;;
19358;SDS011;9815;52.334;20.890;2022-08-01T07:34:18;7.63;;;2.50;;
19358;SDS011;9815;52.334;20.890;2022-08-01T07:36:46;4.97;;;2.30;;
19358;SDS011;9815;52.334;20.890;2022-08-01T07:39:15;3.50;;;1.90;;
19358;SDS011;9815;52.334;20.890;2022-08-01T07:41:43;3.20;;;1.90;;
19358;SDS011;9815;52.334;20.890;2022-08-01T07:44:31;3.60;;;1.67;;
19358;SDS011;9815;52.334;20.890;2022-08-01T07:47:00;3.03;;;1.60;;
19358;SDS011;9815;52.334;20.890;2022-08-01T07:49:29;2.93;;;1.30;;
19358;SDS011;9815;52.334;20.890;2022-08-01T07:52:05;3.70;;;2.00;;
19358;SDS011;9815;52.334;20.890;2022-08-01T07:54:33;1.33;;;1.20;;
19358;SDS011;9815;52.334;20.890;2022-08-01T07:57:03;4.13;;;1.33;;
19358;SDS011;9815;52.334;20.890;2022-08-01T07:59:32;5.73;;;1.37;;
19358;SDS011;9815;52.334;20.890;2022-08-01T08:02:01;2.70;;;1.40;;
19358;SDS011;9815;52.334;20.890;2022-08-01T08:04:31;3.43;;;1.30;;
19358;SDS011;9815;52.334;20.890;2022-08-01T08:06:59;3.70;;;1.33;;
19358;SDS011;9815;52.334;20.890;2022-08-01T08:09:27;4.63;;;1.57;;
19358;SDS011;9815;52.334;20.890;2022-08-01T08:12:02;2.40;;;1.30;;
19358;SDS011;9815;52.334;20.890;2022-08-01T08:14:32;4.47;;;1.60;;
19358;SDS011;9815;52.334;20.890;2022-08-01T08:17:01;2.17;;;1.20;;
19358;SDS011;9815;52.334;20.890;2022-08-01T08:19:31;2.83;;;1.20;;
19358;SDS011;9815;52.334;20.890;2022-08-01T08:22:04;2.77;;;1.40;;
19358;SDS011;9815;52.334;20.890;2022-08-01T08:24:34;1.70;;;1.33;;
19358;SDS011;9815;52.334;20.890;2022-08-01T08:27:11;7.10;;;1.43;;
19358;SDS011;9815;52.334;20.890;2022-08-01T08:29:39;2.20;;;1.20;;
19358;SDS011;9815;52.334;20.890;2022-08-01T08:32:08;4.30;;;1.33;;
19358;SDS011;9815;52.334;20.890;2022-08-01T08:34:38;1.80;;;1.30;;
19358;SDS011;9815;52.334;20.890;2022-08-01T08:37:06;4.23;;;1.40;;
19358;SDS011;9815;52.334;20.890;2022-08-01T08:39:35;2.03;;;1.40;;
19358;SDS011;9815;52.334;20.890;2022-08-01T08:42:08;2.40;;;1.10;;
19358;SDS011;9815;52.334;20.890;2022-08-01T08:44:37;2.17;;;1.43;;
19358;SDS011;9815;52.334;20.890;2022-08-01T08:47:10;2.03;;;1.17;;
19358;SDS011;9815;52.334;20.890;2022-08-01T08:49:46;4.07;;;1.23;;
19358;SDS011;9815;52.334;20.890;2022-08-01T08:52:17;2.70;;;1.50;;
19358;SDS011;9815;52.334;20.890;2022-08-01T08:54:47;3.63;;;1.50;;
19358;SDS011;9815;52.334;20.890;2022-08-01T08:57:18;4.03;;;1.30;;
19358;SDS011;9815;52.334;20.890;2022-08-01T08:59:47;5.07;;;1.20;;
19358;SDS011;9815;52.334;20.890;2022-08-01T09:02:18;3.40;;;1.30;;
19358;SDS011;9815;52.334;20.890;2022-08-01T09:04:48;4.63;;;1.33;;
19358;SDS011;9815;52.334;20.890;2022-08-01T09:07:17;2.25;;;1.10;;
19358;SDS011;9815;52.334;20.890;2022-08-01T09:09:45;2.90;;;1.20;;
19358;SDS011;9815;52.334;20.890;2022-08-01T09:12:17;4.05;;;1.17;;
19358;SDS011;9815;52.334;20.890;2022-08-01T09:14:46;2.35;;;1.10;;
19358;SDS011;9815;52.334;20.890;2022-08-01T09:17:16;4.05;;;1.23;;
19358;SDS011;9815;52.334;20.890;2022-08-01T09:19:46;1.77;;;1.02;;
19358;SDS011;9815;52.334;20.890;2022-08-01T09:22:20;2.00;;;1.10;;
19358;SDS011;9815;52.334;20.890;2022-08-01T09:24:57;4.20;;;1.30;;
19358;SDS011;9815;52.334;20.890;2022-08-01T09:27:27;1.27;;;0.90;;
19358;SDS011;9815;52.334;20.890;2022-08-01T09:30:06;3.03;;;0.85;;
19358;SDS011;9815;52.334;20.890;2022-08-01T09:32:37;1.85;;;1.02;;
19358;SDS011;9815;52.334;20.890;2022-08-01T09:35:26;5.60;;;1.58;;
19358;SDS011;9815;52.334;20.890;2022-08-01T09:38:12;3.38;;;1.05;;
19358;SDS011;9815;52.334;20.890;2022-08-01T09:40:45;2.15;;;1.38;;
19358;SDS011;9815;52.334;20.890;2022-08-01T09:43:15;5.22;;;1.10;;
19358;SDS011;9815;52.334;20.890;2022-08-01T09:45:44;1.60;;;1.02;;
19358;SDS011;9815;52.334;20.890;2022-08-01T09:48:18;3.22;;;1.10;;
19358;SDS011;9815;52.334;20.890;2022-08-01T09:50:55;3.95;;;1.20;;
19358;SDS011;9815;52.334;20.890;2022-08-01T09:53:45;1.35;;;0.95;;
19358;SDS011;9815;52.334;20.890;2022-08-01T09:56:19;3.53;;;1.08;;
19358;SDS011;9815;52.334;20.890;2022-08-01T09:58:52;1.15;;;0.95;;
19358;SDS011;9815;52.334;20.890;2022-08-01T10:01:26;2.67;;;1.00;;
19358;SDS011;9815;52.334;20.890;2022-08-01T10:04:07;2.30;;;1.30;;
19358;SDS011;9815;52.334;20.890;2022-08-01T10:06:39;2.45;;;0.93;;
19358;SDS011;9815;52.334;20.890;2022-08-01T10:09:11;2.65;;;0.90;;
19358;SDS011;9815;52.334;20.890;2022-08-01T10:11:41;1.85;;;1.08;;
19358;SDS011;9815;52.334;20.890;2022-08-01T10:14:10;2.03;;;0.98;;
19358;SDS011;9815;52.334;20.890;2022-08-01T10:16:44;4.53;;;1.00;;
19358;SDS011;9815;52.334;20.890;2022-08-01T10:19:19;2.97;;;1.17;;
19358;SDS011;9815;52.334;20.890;2022-08-01T10:21:52;4.40;;;1.23;;
19358;SDS011;9815;52.334;20.890;2022-08-01T10:24:28;2.90;;;1.10;;
19358;SDS011;9815;52.334;20.890;2022-08-01T10:26:59;1.95;;;1.00;;
19358;SDS011;9815;52.334;20.890;2022-08-01T10:29:36;1.52;;;1.10;;
19358;SDS011;9815;52.334;20.890;2022-08-01T10:32:12;2.30;;;1.30;;
19358;SDS011;9815;52.334;20.890;2022-08-01T10:34:41;2.25;;;1.23;;
19358;SDS011;9815;52.334;20.890;2022-08-01T10:37:12;3.13;;;1.08;;
19358;SDS011;9815;52.334;20.890;2022-08-01T10:39:41;3.90;;;1.30;;
19358;SDS011;9815;52.334;20.890;2022-08-01T10:42:12;2.55;;;1.02;;
19358;SDS011;9815;52.334;20.890;2022-08-01T10:44:41;3.58;;;1.27;;
19358;SDS011;9815;52.334;20.890;2022-08-01T10:47:15;2.72;;;1.20;;
19358;SDS011;9815;52.334;20.890;2022-08-01T10:49:53;2.42;;;1.40;;
19358;SDS011;9815;52.334;20.890;2022-08-01T10:52:29;2.78;;;1.08;;
19358;SDS011;9815;52.334;20.890;2022-08-01T10:55:05;2.63;;;1.20;;
19358;SDS011;9815;52.334;20.890;2022-08-01T10:57:42;1.65;;;1.27;;
19358;SDS011;9815;52.334;20.890;2022-08-01T11:00:18;5.75;;;1.30;;
19358;SDS011;9815;52.334;20.890;2022-08-01T11:02:57;5.05;;;1.40;;
19358;SDS011;9815;52.334;20.890;2022-08-01T11:05:28;10.27;;;1.45;;
19358;SDS011;9815;52.334;20.890;2022-08-01T11:08:01;2.42;;;1.20;;
19358;SDS011;9815;52.334;20.890;2022-08-01T11:10:34;3.95;;;1.20;;
19358;SDS011;9815;52.334;20.890;2022-08-01T11:13:05;4.32;;;1.40;;
19358;SDS011;9815;52.334;20.890;2022-08-01T11:15:35;1.92;;;1.30;;
19358;SDS011;9815;52.334;20.890;2022-08-01T11:18:31;3.47;;;1.15;;
19358;SDS011;9815;52.334;20.890;2022-08-01T11:21:03;3.00;;;1.35;;
19358;SDS011;9815;52.334;20.890;2022-08-01T11:23:53;2.20;;;1.10;;
19358;SDS011;9815;52.334;20.890;2022-08-01T11:26:23;2.97;;;1.05;;
19358;SDS011;9815;52.334;20.890;2022-08-01T11:29:10;2.97;;;1.20;;
19358;SDS011;9815;52.334;20.890;2022-08-01T11:31:47;2.13;;;1.05;;
19358;SDS011;9815;52.334;20.890;2022-08-01T11:34:15;2.65;;;1.20;;
19358;SDS011;9815;52.334;20.890;2022-08-01T11:36:45;1.92;;;1.10;;
19358;SDS011;9815;52.334;20.890;2022-08-01T11:39:26;3.28;;;1.23;;
19358;SDS011;9815;52.334;20.890;2022-08-01T11:41:55;1.95;;;1.05;;
19358;SDS011;9815;52.334;20.890;2022-08-01T11:44:49;4.43;;;2.33;;
19358;SDS011;9815;52.334;20.890;2022-08-01T11:47:18;4.20;;;1.20;;
19358;SDS011;9815;52.334;20.890;2022-08-01T11:50:31;4.30;;;1.35;;
19358;SDS011;9815;52.334;20.890;2022-08-01T11:53:01;5.70;;;1.40;;
19358;SDS011;9815;52.334;20.890;2022-08-01T11:55:32;4.90;;;1.00;;
19358;SDS011;9815;52.334;20.890;2022-08-01T11:58:03;3.67;;;1.30;;
19358;SDS011;9815;52.334;20.890;2022-08-01T12:00:49;3.72;;;1.30;;
19358;SDS011;9815;52.334;20.890;2022-08-01T12:03:23;2.42;;;1.00;;
19358;SDS011;9815;52.334;20.890;2022-08-01T12:05:59;5.82;;;1.15;;
19358;SDS011;9815;52.334;20.890;2022-08-01T12:08:29;2.28;;;1.33;;
19358;SDS011;9815;52.334;20.890;2022-08-01T12:11:01;2.65;;;1.20;;
19358;SDS011;9815;52.334;20.890;2022-08-01T12:13:38;3.45;;;1.30;;
19358;SDS011;9815;52.334;20.890;2022-08-01T12:16:09;1.98;;;1.23;;
19358;SDS011;9815;52.334;20.890;2022-08-01T12:18:38;1.70;;;1.10;;
19358;SDS011;9815;52.334;20.890;2022-08-01T12:21:07;5.22;;;1.75;;
19358;SDS011;9815;52.334;20.890;2022-08-01T12:23:35;1.60;;;1.00;;
19358;SDS011;9815;52.334;20.890;2022-08-01T12:26:05;4.82;;;1.33;;
19358;SDS011;9815;52.334;20.890;2022-08-01T12:28:38;1.80;;;1.25;;
19358;SDS011;9815;52.334;20.890;2022-08-01T12:31:07;9.40;;;1.70;;
19358;SDS011;9815;52.334;20.890;2022-08-01T12:33:38;5.20;;;1.50;;
19358;SDS011;9815;52.334;20.890;2022-08-01T12:36:06;4.03;;;1.45;;
19358;SDS011;9815;52.334;20.890;2022-08-01T12:38:40;2.60;;;1.23;;
19358;SDS011;9815;52.334;20.890;2022-08-01T12:41:11;1.92;;;1.13;;
19358;SDS011;9815;52.334;20.890;2022-08-01T12:43:40;1.92;;;1.17;;
19358;SDS011;9815;52.334;20.890;2022-08-01T12:46:08;2.13;;;1.30;;
19358;SDS011;9815;52.334;20.890;2022-08-01T12:48:42;2.55;;;1.40;;
19358;SDS011;9815;52.334;20.890;2022-08-01T12:51:11;4.10;;;1.30;;
19358;SDS011;9815;52.334;20.890;2022-08-01T12:53:39;4.43;;;2.40;;
19358;SDS011;9815;52.334;20.890;2022-08-01T12:56:08;2.05;;;1.48;;
19358;SDS011;9815;52.334;20.890;2022-08-01T12:58:39;3.25;;;1.48;;
19358;SDS011;9815;52.334;20.890;2022-08-01T13:01:07;2.63;;;1.45;;
19358;SDS011;9815;52.334;20.890;2022-08-01T13:03:38;3.42;;;2.15;;
19358;SDS011;9815;52.334;20.890;2022-08-01T13:06:10;4.95;;;2.20;;
19358;SDS011;9815;52.334;20.890;2022-08-01T13:08:41;4.28;;;1.58;;
19358;SDS011;9815;52.334;20.890;2022-08-01T13:11:11;3.65;;;1.85;;
19358;SDS011;9815;52.334;20.890;2022-08-01T13:13:44;2.78;;;1.70;;
19358;SDS011;9815;52.334;20.890;2022-08-01T13:16:14;2.45;;;1.80;;
19358;SDS011;9815;52.334;20.890;2022-08-01T13:19:03;3.65;;;1.67;;
19358;SDS011;9815;52.334;20.890;2022-08-01T13:21:33;2.15;;;1.70;;
19358;SDS011;9815;52.334;20.890;2022-08-01T13:24:23;2.15;;;1.77;;
19358;SDS011;9815;52.334;20.890;2022-08-01T13:26:54;2.00;;;1.80;;
19358;SDS011;9815;52.334;20.890;2022-08-01T13:29:32;5.80;;;2.30;;
19358;SDS011;9815;52.334;20.890;2022-08-01T13:32:11;3.42;;;2.28;;
19358;SDS011;9815;52.334;20.890;2022-08-01T13:35:03;6.05;;;2.17;;
19358;SDS011;9815;52.334;20.890;2022-08-01T13:37:32;4.85;;;2.00;;
19358;SDS011;9815;52.334;20.890;2022-08-01T13:40:02;5.35;;;2.10;;
19358;SDS011;9815;52.334;20.890;2022-08-01T13:42:31;2.65;;;1.90;;
19358;SDS011;9815;52.334;20.890;2022-08-01T13:45:01;7.80;;;2.10;;
19358;SDS011;9815;52.334;20.890;2022-08-01T13:47:39;4.95;;;2.17;;
19358;SDS011;9815;52.334;20.890;2022-08-01T13:50:27;3.53;;;2.13;;
19358;SDS011;9815;52.334;20.890;2022-08-01T13:52:56;5.30;;;2.35;;
19358;SDS011;9815;52.334;20.890;2022-08-01T13:55:24;4.18;;;2.35;;
19358;SDS011;9815;52.334;20.890;2022-08-01T13:57:59;4.38;;;2.50;;
19358;SDS011;9815;52.334;20.890;2022-08-01T14:00:33;4.70;;;2.35;;
19358;SDS011;9815;52.334;20.890;2022-08-01T14:03:01;4.60;;;2.28;;
19358;SDS011;9815;52.334;20.890;2022-08-01T14:05:29;3.47;;;2.30;;
19358;SDS011;9815;52.334;20.890;2022-08-01T14:07:57;3.38;;;2.30;;
19358;SDS011;9815;52.334;20.890;2022-08-01T14:10:26;5.75;;;2.28;;
19358;SDS011;9815;52.334;20.890;2022-08-01T14:12:56;2.38;;;2.03;;
19358;SDS011;9815;52.334;20.890;2022-08-01T14:15:27;3.25;;;2.00;;
19358;SDS011;9815;52.334;20.890;2022-08-01T14:18:06;5.68;;;2.20;;
19358;SDS011;9815;52.334;20.890;2022-08-01T14:20:36;3.53;;;2.03;;
19358;SDS011;9815;52.334;20.890;2022-08-01T14:23:05;3.67;;;2.30;;
19358;SDS011;9815;52.334;20.890;2022-08-01T14:25:35;4.35;;;2.20;;
19358;SDS011;9815;52.334;20.890;2022-08-01T14:28:24;2.92;;;2.13;;
19358;SDS011;9815;52.334;20.890;2022-08-01T14:30:54;4.60;;;2.65;;
19358;SDS011;9815;52.334;20.890;2022-08-01T14:33:24;3.30;;;2.33;;
19358;SDS011;9815;52.334;20.890;2022-08-01T14:35:53;4.68;;;2.42;;
19358;SDS011;9815;52.334;20.890;2022-08-01T14:38:41;4.32;;;2.30;;
19358;SDS011;9815;52.334;20.890;2022-08-01T14:41:12;6.30;;;2.50;;
19358;SDS011;9815;52.334;20.890;2022-08-01T14:43:40;3.08;;;2.22;;
19358;SDS011;9815;52.334;20.890;2022-08-01T14:46:09;5.80;;;2.42;;
19358;SDS011;9815;52.334;20.890;2022-08-01T14:48:40;3.97;;;2.22;;
19358;SDS011;9815;52.334;20.890;2022-08-01T14:51:08;5.38;;;2.15;;
19358;SDS011;9815;52.334;20.890;2022-08-01T14:53:37;5.40;;;2.70;;
19358;SDS011;9815;52.334;20.890;2022-08-01T14:56:12;2.45;;;2.25;;
19358;SDS011;9815;52.334;20.890;2022-08-01T14:58:40;3.28;;;2.40;;
19358;SDS011;9815;52.334;20.890;2022-08-01T15:01:09;4.05;;;2.20;;
19358;SDS011;9815;52.334;20.890;2022-08-01T15:03:37;4.25;;;2.22;;
19358;SDS011;9815;52.334;20.890;2022-08-01T15:06:09;4.80;;;2.38;;
19358;SDS011;9815;52.334;20.890;2022-08-01T15:08:41;4.32;;;2.70;;
19358;SDS011;9815;52.334;20.890;2022-08-01T15:11:10;2.60;;;2.30;;